createdAt,value
2019-01-25T00:01:48.989Z,17.20
2019-01-25T00:04:18.882Z,18.03
2019-01-25T00:06:50.419Z,17.17
2019-01-25T00:09:20.366Z,17.97
2019-01-25T00:11:50.032Z,18.27
2019-01-25T00:14:19.769Z,17.47
2019-01-25T00:16:50.277Z,17.90
2019-01-25T00:19:20.029Z,17.20
2019-01-25T00:21:49.869Z,17.93
2019-01-25T00:24:19.736Z,18.73
2019-01-25T00:26:49.358Z,17.73
2019-01-25T00:29:19.005Z,17.50
2019-01-25T00:31:48.619Z,17.30
2019-01-25T00:34:18.296Z,18.07
2019-01-25T00:36:47.976Z,18.20
2019-01-25T00:39:17.613Z,17.57
2019-01-25T00:41:47.229Z,17.07
2019-01-25T00:44:16.937Z,18.27
2019-01-25T00:46:46.629Z,16.57
2019-01-25T00:49:16.253Z,18.00
2019-01-25T00:51:46.019Z,16.07
2019-01-25T00:54:15.665Z,17.27
2019-01-25T00:56:45.360Z,17.37
2019-01-25T00:59:15.077Z,18.10
2019-01-25T01:01:44.849Z,18.13
2019-01-25T01:04:14.508Z,16.20
2019-01-25T01:06:44.368Z,14.90
2019-01-25T01:09:14.076Z,14.80
2019-01-25T01:11:44.036Z,14.77
2019-01-25T01:14:13.724Z,14.90
2019-01-25T01:16:43.357Z,15.80
2019-01-25T01:19:12.981Z,16.23
2019-01-25T01:21:42.653Z,16.10
2019-01-25T01:24:12.576Z,16.47
2019-01-25T01:26:42.202Z,16.63
2019-01-25T01:29:11.817Z,16.97
2019-01-25T01:31:41.547Z,15.70
2019-01-25T01:34:11.165Z,14.93
2019-01-25T01:36:40.805Z,15.63
2019-01-25T01:39:10.853Z,18.00
2019-01-25T01:41:40.490Z,18.27
2019-01-25T01:44:10.452Z,17.73
2019-01-25T01:46:40.125Z,17.83
2019-01-25T01:49:10.569Z,17.92
2019-01-25T01:51:40.255Z,17.47
2019-01-25T01:54:10.392Z,18.32
2019-01-25T01:56:40.041Z,16.63
2019-01-25T01:59:10.429Z,16.95
2019-01-25T02:01:40.129Z,16.50
2019-01-25T02:04:10.616Z,17.30
2019-01-25T02:06:40.245Z,17.67
2019-01-25T02:09:10.671Z,17.07
2019-01-25T02:11:40.302Z,17.70
2019-01-25T02:14:10.409Z,18.77
2019-01-25T02:16:40.033Z,18.23
2019-01-25T02:19:10.470Z,17.80
2019-01-25T02:21:40.088Z,17.00
2019-01-25T02:24:10.404Z,17.73
2019-01-25T02:26:41.250Z,18.03
2019-01-25T02:29:10.868Z,17.87
2019-01-25T02:31:40.736Z,17.83
2019-01-25T02:34:10.466Z,18.07
2019-01-25T02:36:40.578Z,17.87
2019-01-25T02:39:10.691Z,17.87
2019-01-25T02:41:40.327Z,19.17
2019-01-25T02:44:10.530Z,17.65
2019-01-25T02:46:40.215Z,18.87
2019-01-25T02:49:10.569Z,18.67
2019-01-25T02:51:40.176Z,19.03
2019-01-25T02:54:10.441Z,18.32
2019-01-25T02:56:40.093Z,18.27
2019-01-25T02:59:10.465Z,18.30
2019-01-25T03:01:40.557Z,18.13
2019-01-25T03:04:10.798Z,19.27
2019-01-25T03:06:40.466Z,18.07
2019-01-25T03:09:11.084Z,18.82
2019-01-25T03:11:40.697Z,19.50
2019-01-25T03:14:10.447Z,18.35
2019-01-25T03:16:41.124Z,18.77
2019-01-25T03:19:10.755Z,17.70
2019-01-25T03:21:40.374Z,17.53
2019-01-25T03:24:11.078Z,19.20
2019-01-25T03:26:40.689Z,17.87
2019-01-25T03:29:10.549Z,18.85
2019-01-25T03:31:40.252Z,18.53
2019-01-25T03:34:10.514Z,18.15
2019-01-25T03:36:40.506Z,19.00
2019-01-25T03:39:10.502Z,19.45
2019-01-25T03:41:40.458Z,18.43
2019-01-25T03:44:10.709Z,21.17
2019-01-25T03:46:40.350Z,18.87
2019-01-25T03:49:12.273Z,18.90
2019-01-25T03:51:42.286Z,18.77
2019-01-25T03:54:12.480Z,19.30
2019-01-25T03:56:42.194Z,18.80
2019-01-25T03:59:12.230Z,18.60
2019-01-25T04:01:41.845Z,19.20
2019-01-25T04:04:11.593Z,17.37
2019-01-25T04:06:41.288Z,17.83
2019-01-25T04:09:11.067Z,17.77
2019-01-25T04:11:40.688Z,18.10
2019-01-25T04:14:10.944Z,17.50
2019-01-25T04:16:40.647Z,17.43
2019-01-25T04:19:10.565Z,19.17
2019-01-25T04:21:40.453Z,17.50
2019-01-25T04:24:11.121Z,17.80
2019-01-25T04:26:40.789Z,18.17
2019-01-25T04:29:10.518Z,17.87
2019-01-25T04:31:40.269Z,17.30
2019-01-25T04:34:10.551Z,18.52
2019-01-25T04:36:40.309Z,18.17
2019-01-25T04:39:10.577Z,18.17
2019-01-25T04:41:40.206Z,18.03
2019-01-25T04:44:10.517Z,18.10
2019-01-25T04:46:40.409Z,19.27
2019-01-25T04:49:10.555Z,19.82
2019-01-25T04:51:40.181Z,19.47
2019-01-25T04:54:10.501Z,20.08
2019-01-25T04:56:40.409Z,19.47
2019-01-25T04:59:10.550Z,20.17
2019-01-25T05:01:41.157Z,20.70
2019-01-25T05:04:10.780Z,20.30
2019-01-25T05:06:40.452Z,18.97
2019-01-25T05:09:10.957Z,20.40
2019-01-25T05:11:40.937Z,19.93
2019-01-25T05:14:10.573Z,20.80
2019-01-25T05:16:40.262Z,19.93
2019-01-25T05:19:10.500Z,20.60
2019-01-25T05:21:40.138Z,21.27
2019-01-25T05:24:12.138Z,20.05
2019-01-25T05:26:41.841Z,20.90
2019-01-25T05:29:11.458Z,20.03
2019-01-25T05:31:41.101Z,20.03
2019-01-25T05:34:10.718Z,20.10
2019-01-25T05:36:40.501Z,19.80
2019-01-25T05:39:10.532Z,20.27
2019-01-25T05:41:40.205Z,20.13
2019-01-25T05:44:10.521Z,19.90
2019-01-25T05:46:40.456Z,20.13
2019-01-25T05:49:10.590Z,20.15
2019-01-25T05:51:40.489Z,19.73
2019-01-25T05:54:10.603Z,19.45
2019-01-25T05:56:43.205Z,20.03
2019-01-25T05:59:12.886Z,20.23
2019-01-25T06:01:45.924Z,20.10
2019-01-25T06:04:16.105Z,19.00
2019-01-25T06:06:46.049Z,19.60
2019-01-25T06:09:20.448Z,19.53
2019-01-25T06:11:50.077Z,19.30
2019-01-25T06:14:19.772Z,19.40
2019-01-25T06:16:49.538Z,19.30
2019-01-25T06:19:19.224Z,19.00
2019-01-25T06:21:48.880Z,19.43
2019-01-25T06:24:18.497Z,19.37
2019-01-25T06:26:48.276Z,20.63
2019-01-25T06:29:18.872Z,20.53
2019-01-25T06:31:48.525Z,20.63
2019-01-25T06:34:18.196Z,19.87
2019-01-25T06:36:47.822Z,20.07
2019-01-25T06:39:17.449Z,20.83
2019-01-25T06:41:47.147Z,20.20
2019-01-25T06:44:16.873Z,20.27
2019-01-25T06:46:47.702Z,19.63
2019-01-25T06:49:17.321Z,20.53
2019-01-25T06:51:46.950Z,19.57
2019-01-25T06:54:16.573Z,19.87
2019-01-25T06:56:46.197Z,19.50
2019-01-25T06:59:22.474Z,20.77
2019-01-25T07:01:55.615Z,20.87
2019-01-25T07:04:25.545Z,19.10
2019-01-25T07:06:55.177Z,20.03
2019-01-25T07:09:25.452Z,19.87
2019-01-25T07:11:55.077Z,20.50
2019-01-25T07:14:25.126Z,19.53
2019-01-25T07:16:54.746Z,20.43
2019-01-25T07:19:24.465Z,19.37
2019-01-25T07:21:54.100Z,19.63
2019-01-25T07:24:23.856Z,18.90
2019-01-25T07:26:53.562Z,19.23
2019-01-25T07:29:23.516Z,19.13
2019-01-25T07:31:53.136Z,19.00
2019-01-25T07:34:22.813Z,17.97
2019-01-25T07:36:52.446Z,19.80
2019-01-25T07:39:27.081Z,19.63
2019-01-25T07:41:59.604Z,21.30
2019-01-25T07:44:28.594Z,19.77
2019-01-25T07:46:58.758Z,19.93
2019-01-25T07:49:28.501Z,19.13
2019-01-25T07:51:58.496Z,20.03
2019-01-25T07:54:28.297Z,20.20
2019-01-25T07:56:57.995Z,20.73
2019-01-25T07:59:27.645Z,20.07
2019-01-25T08:01:57.406Z,20.97
2019-01-25T08:04:27.453Z,22.07
2019-01-25T08:06:57.075Z,22.43
2019-01-25T08:09:26.701Z,22.23
2019-01-25T08:11:56.317Z,22.97
2019-01-25T08:14:26.014Z,29.37
2019-01-25T08:16:55.866Z,28.40
2019-01-25T08:19:25.577Z,36.83
2019-01-25T08:21:55.218Z,19.90
2019-01-25T08:24:25.163Z,19.70
2019-01-25T08:26:55.111Z,22.93
2019-01-25T08:29:28.111Z,23.67
2019-01-25T08:31:56.500Z,20.30
2019-01-25T08:34:26.213Z,21.40
2019-01-25T08:36:55.920Z,20.00
2019-01-25T08:39:25.602Z,22.97
2019-01-25T08:41:55.244Z,20.27
2019-01-25T08:44:25.139Z,22.87
2019-01-25T08:46:54.923Z,23.57
2019-01-25T08:49:24.610Z,21.50
2019-01-25T08:51:54.746Z,21.67
2019-01-25T08:54:24.444Z,24.67
2019-01-25T08:56:54.200Z,20.27
2019-01-25T08:59:23.823Z,19.73
2019-01-25T09:01:53.494Z,23.17
2019-01-25T09:04:23.186Z,20.07
2019-01-25T09:06:52.886Z,19.40
2019-01-25T09:09:22.506Z,24.17
2019-01-25T09:11:52.144Z,18.80
2019-01-25T09:14:21.812Z,19.80
2019-01-25T09:16:51.447Z,19.07
2019-01-25T09:19:21.124Z,24.10
2019-01-25T09:21:50.763Z,21.60
2019-01-25T09:24:20.654Z,17.93
2019-01-25T09:26:50.401Z,19.23
2019-01-25T09:29:20.026Z,19.87
2019-01-25T09:31:49.664Z,19.97
2019-01-25T09:34:19.401Z,20.20
2019-01-25T09:36:49.061Z,19.40
2019-01-25T09:39:18.848Z,19.70
2019-01-25T09:41:48.484Z,18.00
2019-01-25T09:44:18.392Z,19.70
2019-01-25T09:46:48.052Z,18.70
2019-01-25T09:49:17.914Z,20.93
2019-01-25T09:51:47.524Z,24.73
2019-01-25T09:54:17.212Z,20.10
2019-01-25T09:56:46.829Z,19.63
2019-01-25T09:59:16.525Z,20.07
2019-01-25T10:01:46.140Z,21.77
2019-01-25T10:04:15.814Z,21.67
2019-01-25T10:06:45.472Z,21.50
2019-01-25T10:09:15.381Z,20.43
2019-01-25T10:11:45.016Z,21.70
2019-01-25T10:14:14.641Z,20.10
2019-01-25T10:16:44.329Z,21.50
2019-01-25T10:19:13.950Z,21.07
2019-01-25T10:21:43.722Z,20.53
2019-01-25T10:24:13.419Z,20.83
2019-01-25T10:26:43.051Z,19.33
2019-01-25T10:29:13.055Z,20.30
2019-01-25T10:31:42.869Z,20.93
2019-01-25T10:34:12.825Z,19.87
2019-01-25T10:36:42.478Z,20.80
2019-01-25T10:39:12.210Z,20.83
2019-01-25T10:41:41.845Z,19.37
2019-01-25T10:44:11.469Z,19.70
2019-01-25T10:46:41.077Z,24.13
2019-01-25T10:49:10.902Z,26.15
2019-01-25T10:51:40.560Z,22.43
2019-01-25T10:54:11.000Z,20.23
2019-01-25T10:56:42.040Z,21.73
2019-01-25T10:59:11.840Z,21.17
2019-01-25T11:01:41.997Z,20.47
2019-01-25T11:04:11.916Z,20.50
2019-01-25T11:06:41.628Z,19.77
2019-01-25T11:09:11.347Z,20.83
2019-01-25T11:11:40.952Z,21.47
2019-01-25T11:14:11.101Z,21.65
2019-01-25T11:16:40.717Z,20.67
2019-01-25T11:19:10.859Z,21.20
2019-01-25T11:21:40.484Z,19.73
2019-01-25T11:24:11.120Z,21.80
2019-01-25T11:26:40.742Z,20.93
2019-01-25T11:29:10.882Z,21.52
2019-01-25T11:31:40.656Z,20.30
2019-01-25T11:34:11.454Z,20.00
2019-01-25T11:36:41.191Z,18.57
2019-01-25T11:39:11.758Z,19.43
2019-01-25T11:41:41.517Z,19.67
2019-01-25T11:44:11.257Z,19.03
2019-01-25T11:46:41.322Z,17.83
2019-01-25T11:49:11.023Z,18.70
2019-01-25T11:51:41.932Z,19.93
2019-01-25T11:54:11.563Z,18.63
2019-01-25T11:56:41.276Z,19.63
2019-01-25T11:59:10.969Z,18.93
2019-01-25T12:01:40.975Z,18.47
2019-01-25T12:04:11.698Z,17.50
2019-01-25T12:06:41.328Z,18.70
2019-01-25T12:09:11.029Z,18.53
2019-01-25T12:11:40.711Z,17.90
2019-01-25T12:14:10.979Z,18.10
2019-01-25T12:16:40.603Z,17.90
2019-01-25T12:19:11.362Z,19.50
2019-01-25T12:21:40.993Z,19.73
2019-01-25T12:24:10.953Z,19.65
2019-01-25T12:26:40.589Z,18.97
2019-01-25T12:29:10.898Z,19.55
2019-01-25T12:31:40.849Z,18.90
2019-01-25T12:34:11.041Z,21.90
2019-01-25T12:36:40.713Z,20.63
2019-01-25T12:39:11.299Z,22.02
2019-01-25T12:41:41.308Z,20.60
2019-01-25T12:44:10.956Z,22.43
2019-01-25T12:46:40.586Z,22.07
2019-01-25T12:49:10.968Z,23.55
2019-01-25T12:51:49.094Z,24.70
2019-01-25T12:54:19.052Z,21.83
2019-01-25T12:56:48.777Z,21.40
2019-01-25T12:59:18.709Z,21.83
2019-01-25T13:01:50.279Z,21.07
2019-01-25T13:04:21.065Z,20.47
2019-01-25T13:06:50.703Z,22.77
2019-01-25T13:09:20.316Z,21.63
2019-01-25T13:11:50.117Z,18.30
2019-01-25T13:14:19.749Z,18.80
2019-01-25T13:16:50.785Z,19.53
2019-01-25T13:19:20.797Z,25.50
2019-01-25T13:21:50.464Z,22.00
2019-01-25T13:24:20.356Z,21.00
2019-01-25T13:26:50.317Z,20.70
2019-01-25T13:29:26.035Z,20.53
2019-01-25T13:31:51.404Z,22.77
2019-01-25T13:34:21.359Z,20.97
2019-01-25T13:36:57.037Z,22.80
2019-01-25T13:39:22.589Z,21.37
2019-01-25T13:41:52.431Z,22.93
2019-01-25T13:44:22.385Z,23.03
2019-01-25T13:46:53.150Z,23.97
2019-01-25T13:49:23.065Z,22.33
2019-01-25T13:51:52.810Z,23.13
2019-01-25T13:54:22.884Z,22.60
2019-01-25T13:56:52.501Z,22.23
2019-01-25T13:59:22.209Z,21.60
2019-01-25T14:01:56.127Z,22.53
2019-01-25T14:04:23.172Z,21.83
2019-01-25T14:06:53.042Z,23.07
2019-01-25T14:09:23.229Z,22.33
2019-01-25T14:11:52.881Z,21.83
2019-01-25T14:14:22.526Z,21.83
2019-01-25T14:16:52.147Z,23.70
2019-01-25T14:19:22.065Z,21.67
2019-01-25T14:21:51.786Z,22.30
2019-01-25T14:24:21.443Z,23.63
2019-01-25T14:26:51.069Z,22.80
2019-01-25T14:29:21.314Z,22.10
2019-01-25T14:31:51.111Z,22.27
2019-01-25T14:34:20.740Z,23.37
2019-01-25T14:36:50.352Z,28.30
2019-01-25T14:39:20.445Z,23.80
2019-01-25T14:41:50.072Z,25.00
2019-01-25T14:44:19.993Z,24.73
2019-01-25T14:46:49.689Z,23.70
2019-01-25T14:49:19.385Z,24.93
2019-01-25T14:51:49.011Z,24.00
2019-01-25T14:54:18.624Z,23.87
2019-01-25T14:56:48.424Z,25.73
2019-01-25T14:59:18.208Z,24.73
2019-01-25T15:01:47.894Z,24.73
2019-01-25T15:04:17.618Z,25.63
2019-01-25T15:06:47.542Z,25.13
2019-01-25T15:09:17.247Z,25.80
2019-01-25T15:11:47.006Z,25.53
2019-01-25T15:14:17.777Z,26.53
2019-01-25T15:16:47.398Z,25.80
2019-01-25T15:19:17.176Z,26.67
2019-01-25T15:21:47.093Z,26.40
2019-01-25T15:24:17.077Z,26.57
2019-01-25T15:26:46.704Z,25.77
2019-01-25T15:29:16.338Z,26.03
2019-01-25T15:31:46.117Z,26.93
2019-01-25T15:34:17.165Z,25.90
2019-01-25T15:36:47.036Z,27.93
2019-01-25T15:39:16.721Z,25.63
2019-01-25T15:41:46.361Z,26.53
2019-01-25T15:44:16.099Z,27.53
2019-01-25T15:46:45.741Z,28.37
2019-01-25T15:49:15.387Z,25.87
2019-01-25T15:51:45.373Z,26.80
2019-01-25T15:54:15.177Z,29.33
2019-01-25T15:56:45.224Z,28.60
2019-01-25T15:59:14.924Z,29.07
2019-01-25T16:01:44.716Z,29.43
2019-01-25T16:04:14.345Z,27.83
2019-01-25T16:06:44.233Z,28.17
2019-01-25T16:09:15.510Z,29.33
2019-01-25T16:11:45.512Z,29.50
2019-01-25T16:14:18.098Z,30.87
2019-01-25T16:16:47.000Z,30.40
2019-01-25T16:19:16.707Z,29.83
2019-01-25T16:21:46.379Z,31.53
2019-01-25T16:24:16.233Z,29.93
2019-01-25T16:26:45.961Z,28.30
2019-01-25T16:29:15.615Z,29.13
2019-01-25T16:31:45.265Z,30.80
2019-01-25T16:34:14.976Z,30.17
2019-01-25T16:36:44.951Z,30.87
2019-01-25T16:39:14.645Z,29.13
2019-01-25T16:41:44.290Z,30.53
2019-01-25T16:44:14.234Z,30.67
2019-01-25T16:46:43.940Z,35.83
2019-01-25T16:49:13.805Z,30.80
2019-01-25T16:51:43.728Z,33.00
2019-01-25T16:54:13.854Z,30.80
2019-01-25T16:56:43.605Z,31.27
2019-01-25T16:59:13.553Z,31.47
2019-01-25T17:01:43.187Z,31.77
2019-01-25T17:04:13.158Z,32.37
2019-01-25T17:06:43.112Z,30.63
2019-01-25T17:09:12.805Z,30.33
2019-01-25T17:11:42.445Z,29.27
2019-01-25T17:14:12.079Z,31.13
2019-01-25T17:16:41.705Z,28.43
2019-01-25T17:19:11.354Z,29.03
2019-01-25T17:21:41.086Z,30.73
2019-01-25T17:24:11.441Z,28.80
2019-01-25T17:26:41.069Z,31.50
2019-01-25T17:29:11.473Z,27.40
2019-01-25T17:31:41.478Z,27.87
2019-01-25T17:34:11.326Z,26.10
2019-01-25T17:36:41.117Z,26.97
2019-01-25T17:39:16.661Z,27.35
2019-01-25T17:41:46.390Z,25.23
2019-01-25T17:44:16.051Z,25.43
2019-01-25T17:46:47.081Z,24.23
2019-01-25T17:49:16.722Z,24.30
2019-01-25T17:51:46.409Z,23.03
2019-01-25T17:54:16.144Z,27.10
2019-01-25T17:56:46.939Z,25.73
2019-01-25T17:59:16.568Z,25.63
2019-01-25T18:01:47.365Z,24.33
2019-01-25T18:04:17.149Z,25.03
2019-01-25T18:06:46.765Z,23.50
2019-01-25T18:09:16.391Z,26.70
2019-01-25T18:11:46.208Z,26.73
2019-01-25T18:14:15.842Z,24.23
2019-01-25T18:16:45.723Z,27.40
2019-01-25T18:19:15.358Z,26.50
2019-01-25T18:21:45.049Z,25.57
2019-01-25T18:24:14.764Z,26.20
2019-01-25T18:26:44.393Z,25.90
2019-01-25T18:29:21.687Z,25.37
2019-01-25T18:31:51.439Z,25.27
2019-01-25T18:34:21.098Z,25.00
2019-01-25T18:36:50.869Z,24.77
2019-01-25T18:39:20.512Z,25.10
2019-01-25T18:41:50.270Z,22.97
2019-01-25T18:44:20.356Z,24.77
2019-01-25T18:46:50.133Z,23.30
2019-01-25T18:49:19.762Z,24.57
2019-01-25T18:51:49.572Z,23.30
2019-01-25T18:54:19.467Z,24.23
2019-01-25T18:56:50.008Z,23.27
2019-01-25T18:59:19.629Z,24.77
2019-01-25T19:01:49.331Z,24.43
2019-01-25T19:04:19.040Z,24.67
2019-01-25T19:06:48.857Z,23.13
2019-01-25T19:09:18.469Z,23.67
2019-01-25T19:11:48.092Z,22.53
2019-01-25T19:14:17.802Z,28.50
2019-01-25T19:16:47.703Z,27.97
2019-01-25T19:19:18.374Z,27.33
2019-01-25T19:21:48.382Z,31.43
2019-01-25T19:24:18.166Z,26.13
2019-01-25T19:26:47.784Z,24.53
2019-01-25T19:29:17.465Z,24.80
2019-01-25T19:31:47.642Z,26.20
2019-01-25T19:34:17.425Z,24.97
2019-01-25T19:36:47.153Z,26.17
2019-01-25T19:39:16.827Z,25.13
2019-01-25T19:41:46.785Z,24.53
2019-01-25T19:44:16.447Z,25.77
2019-01-25T19:46:46.184Z,25.67
2019-01-25T19:49:15.879Z,26.40
2019-01-25T19:51:45.682Z,25.67
2019-01-25T19:54:15.552Z,26.97
2019-01-25T19:56:45.436Z,27.43
2019-01-25T19:59:15.178Z,27.13
2019-01-25T20:01:44.949Z,27.47
2019-01-25T20:04:14.655Z,28.10
2019-01-25T20:06:44.406Z,27.63
2019-01-25T20:09:14.666Z,26.90
2019-01-25T20:11:44.332Z,28.77
2019-01-25T20:14:14.044Z,27.90
2019-01-25T20:16:43.675Z,27.13
2019-01-25T20:19:13.471Z,28.73
2019-01-25T20:21:44.075Z,29.37
2019-01-25T20:24:13.777Z,29.63
2019-01-25T20:26:43.400Z,29.20
2019-01-25T20:29:13.137Z,26.43
2019-01-25T20:31:42.782Z,27.50
2019-01-25T20:34:12.537Z,27.83
2019-01-25T20:36:42.714Z,29.40
2019-01-25T20:39:13.492Z,28.40
2019-01-25T20:41:43.126Z,28.30
2019-01-25T20:44:13.329Z,29.40
2019-01-25T20:46:43.041Z,28.33
2019-01-25T20:49:13.097Z,27.03
2019-01-25T20:51:43.706Z,28.60
2019-01-25T20:54:13.470Z,29.77
2019-01-25T20:56:43.324Z,28.30
2019-01-25T20:59:12.936Z,28.77
2019-01-25T21:01:43.218Z,29.93
2019-01-25T21:04:12.841Z,29.27
2019-01-25T21:06:42.548Z,29.93
2019-01-25T21:09:12.445Z,30.10
2019-01-25T21:11:42.524Z,31.43
2019-01-25T21:14:12.508Z,26.60
2019-01-25T21:16:42.137Z,28.03
2019-01-25T21:19:11.945Z,30.52
2019-01-25T21:21:41.568Z,29.83
2019-01-25T21:24:12.345Z,30.20
2019-01-25T21:26:42.028Z,31.40
2019-01-25T21:29:12.005Z,29.00
2019-01-25T21:31:41.634Z,30.03
2019-01-25T21:34:12.366Z,30.52
2019-01-25T21:36:42.301Z,30.27
2019-01-25T21:39:12.297Z,30.27
2019-01-25T21:41:42.045Z,29.77
2019-01-25T21:44:12.162Z,28.75
2019-01-25T21:46:41.817Z,29.60
2019-01-25T21:49:12.567Z,29.90
2019-01-25T21:51:42.185Z,29.93
2019-01-25T21:54:12.338Z,29.40
2019-01-25T21:56:42.110Z,31.20
2019-01-25T21:59:12.337Z,30.57
2019-01-25T22:01:41.958Z,28.50
2019-01-25T22:04:12.468Z,31.00
2019-01-25T22:06:42.161Z,31.03
2019-01-25T22:09:12.802Z,30.97
2019-01-25T22:11:42.430Z,31.47
2019-01-25T22:14:12.575Z,30.00
2019-01-25T22:16:42.193Z,30.50
2019-01-25T22:19:12.539Z,30.30
2019-01-25T22:21:42.155Z,30.80
2019-01-25T22:24:12.938Z,30.15
2019-01-25T22:26:43.735Z,31.80
2019-01-25T22:29:13.437Z,30.50
2019-01-25T22:31:43.133Z,32.43
2019-01-25T22:34:12.756Z,30.93
2019-01-25T22:36:42.889Z,32.67
2019-01-25T22:39:12.757Z,31.30
2019-01-25T22:41:42.760Z,31.77
2019-01-25T22:44:12.650Z,33.85
2019-01-25T22:46:42.881Z,30.23
2019-01-25T22:49:12.735Z,33.38
2019-01-25T22:51:42.818Z,32.43
2019-01-25T22:54:13.093Z,32.85
2019-01-25T22:56:42.998Z,31.40
2019-01-25T22:59:12.837Z,31.95
2019-01-25T23:01:42.589Z,31.37
2019-01-25T23:04:40.496Z,31.75
2019-01-25T23:07:18.500Z,33.20
2019-01-25T23:10:02.608Z,31.80
2019-01-25T23:12:33.477Z,32.33
2019-01-25T23:15:03.181Z,33.07
2019-01-25T23:17:33.321Z,32.87
2019-01-25T23:20:03.370Z,31.27
2019-01-25T23:22:33.055Z,32.30
2019-01-25T23:25:02.777Z,30.80
2019-01-25T23:27:32.486Z,30.63
2019-01-25T23:30:02.261Z,31.83
2019-01-25T23:32:33.305Z,29.97
2019-01-25T23:35:03.369Z,30.80
2019-01-25T23:37:33.305Z,30.10
2019-01-25T23:40:03.074Z,30.20
2019-01-25T23:42:32.989Z,30.90
2019-01-25T23:45:02.618Z,29.27
2019-01-25T23:47:32.305Z,30.33
2019-01-25T23:50:02.022Z,31.30
2019-01-25T23:52:31.652Z,27.97
2019-01-25T23:55:01.381Z,28.47
2019-01-25T23:57:31.000Z,28.80
